sensor_id;sensor_type;location;lat;lon;timestamp;temperature;humidity
75170;SHT31;63749;49.186;9.222;2023-07-16T00:01:12;19.40;96.64
75170;SHT31;63749;49.186;9.222;2023-07-16T00:03:37;19.45;96.49
75170;SHT31;63749;49.186;9.222;2023-07-16T00:06:02;19.40;96.72
75170;SHT31;63749;49.186;9.222;2023-07-16T00:08:28;19.35;96.75
75170;SHT31;63749;49.186;9.222;2023-07-16T00:10:53;19.29;96.80
75170;SHT31;63749;49.186;9.222;2023-07-16T00:13:18;19.26;96.95
75170;SHT31;63749;49.186;9.222;2023-07-16T00:15:44;19.29;96.62
75170;SHT31;63749;49.186;9.222;2023-07-16T00:18:09;19.36;96.50
75170;SHT31;63749;49.186;9.222;2023-07-16T00:20:34;19.32;96.60
75170;SHT31;63749;49.186;9.222;2023-07-16T00:23:00;19.36;96.92
75170;SHT31;63749;49.186;9.222;2023-07-16T00:25:25;19.40;96.16
75170;SHT31;63749;49.186;9.222;2023-07-16T00:27:50;19.42;96.27
75170;SHT31;63749;49.186;9.222;2023-07-16T00:30:16;19.38;96.51
75170;SHT31;63749;49.186;9.222;2023-07-16T00:32:41;19.32;95.66
75170;SHT31;63749;49.186;9.222;2023-07-16T00:35:07;19.26;96.15
75170;SHT31;63749;49.186;9.222;2023-07-16T00:37:33;19.32;95.38
75170;SHT31;63749;49.186;9.222;2023-07-16T00:39:59;19.26;95.53
75170;SHT31;63749;49.186;9.222;2023-07-16T00:42:24;19.28;95.91
75170;SHT31;63749;49.186;9.222;2023-07-16T00:44:50;19.28;95.76
75170;SHT31;63749;49.186;9.222;2023-07-16T00:47:15;19.26;95.44
75170;SHT31;63749;49.186;9.222;2023-07-16T00:49:40;19.26;95.52
75170;SHT31;63749;49.186;9.222;2023-07-16T00:52:08;19.26;95.31
75170;SHT31;63749;49.186;9.222;2023-07-16T00:54:36;19.28;94.83
75170;SHT31;63749;49.186;9.222;2023-07-16T00:57:03;19.28;94.31
75170;SHT31;63749;49.186;9.222;2023-07-16T00:59:28;19.28;94.42
75170;SHT31;63749;49.186;9.222;2023-07-16T01:01:53;19.35;92.96
75170;SHT31;63749;49.186;9.222;2023-07-16T01:04:19;19.35;93.26
75170;SHT31;63749;49.186;9.222;2023-07-16T01:06:48;19.38;91.79
75170;SHT31;63749;49.186;9.222;2023-07-16T01:09:17;19.32;91.56
75170;SHT31;63749;49.186;9.222;2023-07-16T01:11:43;19.33;91.72
75170;SHT31;63749;49.186;9.222;2023-07-16T01:14:10;19.29;92.36
75170;SHT31;63749;49.186;9.222;2023-07-16T01:16:35;19.35;92.34
75170;SHT31;63749;49.186;9.222;2023-07-16T01:19:01;19.42;92.43
75170;SHT31;63749;49.186;9.222;2023-07-16T01:21:33;19.39;92.59
75170;SHT31;63749;49.186;9.222;2023-07-16T01:27:17;19.35;91.25
75170;SHT31;63749;49.186;9.222;2023-07-16T01:29:49;19.47;90.16
75170;SHT31;63749;49.186;9.222;2023-07-16T01:32:16;19.39;90.34
75170;SHT31;63749;49.186;9.222;2023-07-16T01:34:42;19.23;91.24
75170;SHT31;63749;49.186;9.222;2023-07-16T01:37:08;19.16;91.23
75170;SHT31;63749;49.186;9.222;2023-07-16T01:39:34;19.39;89.79
75170;SHT31;63749;49.186;9.222;2023-07-16T01:42:00;19.38;89.72
75170;SHT31;63749;49.186;9.222;2023-07-16T01:44:26;19.22;89.93
75170;SHT31;63749;49.186;9.222;2023-07-16T01:49:31;19.08;88.57
75170;SHT31;63749;49.186;9.222;2023-07-16T01:51:56;19.05;89.10
75170;SHT31;63749;49.186;9.222;2023-07-16T01:54:22;19.22;88.25
75170;SHT31;63749;49.186;9.222;2023-07-16T01:56:47;19.04;88.88
75170;SHT31;63749;49.186;9.222;2023-07-16T01:59:12;18.94;88.38
75170;SHT31;63749;49.186;9.222;2023-07-16T02:01:38;19.07;86.08
75170;SHT31;63749;49.186;9.222;2023-07-16T02:04:03;18.95;87.19
75170;SHT31;63749;49.186;9.222;2023-07-16T02:06:29;18.94;87.45
75170;SHT31;63749;49.186;9.222;2023-07-16T02:08:54;18.87;87.74
75170;SHT31;63749;49.186;9.222;2023-07-16T02:11:20;18.75;87.93
75170;SHT31;63749;49.186;9.222;2023-07-16T02:13:45;18.67;87.98
75170;SHT31;63749;49.186;9.222;2023-07-16T02:16:10;18.75;87.58
75170;SHT31;63749;49.186;9.222;2023-07-16T02:18:35;18.89;86.66
75170;SHT31;63749;49.186;9.222;2023-07-16T02:21:01;18.92;87.16
75170;SHT31;63749;49.186;9.222;2023-07-16T02:23:27;18.75;87.58
75170;SHT31;63749;49.186;9.222;2023-07-16T02:25:52;18.65;87.58
75170;SHT31;63749;49.186;9.222;2023-07-16T02:28:18;18.60;88.41
75170;SHT31;63749;49.186;9.222;2023-07-16T02:30:43;18.65;87.84
75170;SHT31;63749;49.186;9.222;2023-07-16T02:33:08;18.60;88.03
75170;SHT31;63749;49.186;9.222;2023-07-16T02:35:34;18.67;87.60
75170;SHT31;63749;49.186;9.222;2023-07-16T02:37:59;18.57;88.66
75170;SHT31;63749;49.186;9.222;2023-07-16T02:40:24;18.67;87.44
75170;SHT31;63749;49.186;9.222;2023-07-16T02:42:50;18.77;86.59
75170;SHT31;63749;49.186;9.222;2023-07-16T02:45:15;18.63;87.58
75170;SHT31;63749;49.186;9.222;2023-07-16T02:47:40;18.57;87.13
75170;SHT31;63749;49.186;9.222;2023-07-16T02:50:06;18.53;87.16
75170;SHT31;63749;49.186;9.222;2023-07-16T02:52:32;18.57;86.31
75170;SHT31;63749;49.186;9.222;2023-07-16T02:54:57;18.60;86.46
75170;SHT31;63749;49.186;9.222;2023-07-16T02:57:22;18.61;86.29
75170;SHT31;63749;49.186;9.222;2023-07-16T02:59:48;18.43;87.40
75170;SHT31;63749;49.186;9.222;2023-07-16T03:02:13;18.46;87.42
75170;SHT31;63749;49.186;9.222;2023-07-16T03:04:38;18.36;88.89
75170;SHT31;63749;49.186;9.222;2023-07-16T03:07:05;18.47;86.89
75170;SHT31;63749;49.186;9.222;2023-07-16T03:09:30;18.58;86.39
75170;SHT31;63749;49.186;9.222;2023-07-16T03:11:55;18.60;85.80
75170;SHT31;63749;49.186;9.222;2023-07-16T03:14:21;18.68;86.10
75170;SHT31;63749;49.186;9.222;2023-07-16T03:16:46;18.61;86.63
75170;SHT31;63749;49.186;9.222;2023-07-16T03:19:12;18.64;86.18
75170;SHT31;63749;49.186;9.222;2023-07-16T03:21:37;18.61;86.65
75170;SHT31;63749;49.186;9.222;2023-07-16T03:24:03;18.58;86.71
75170;SHT31;63749;49.186;9.222;2023-07-16T03:26:28;18.53;86.72
75170;SHT31;63749;49.186;9.222;2023-07-16T03:28:53;18.44;87.20
75170;SHT31;63749;49.186;9.222;2023-07-16T03:31:20;18.37;87.49
75170;SHT31;63749;49.186;9.222;2023-07-16T03:33:45;18.40;87.66
75170;SHT31;63749;49.186;9.222;2023-07-16T03:36:10;18.46;87.55
75170;SHT31;63749;49.186;9.222;2023-07-16T03:38:36;18.39;87.63
75170;SHT31;63749;49.186;9.222;2023-07-16T03:41:01;18.50;87.67
75170;SHT31;63749;49.186;9.222;2023-07-16T03:43:27;18.51;87.78
75170;SHT31;63749;49.186;9.222;2023-07-16T03:45:52;18.37;87.73
75170;SHT31;63749;49.186;9.222;2023-07-16T03:48:18;18.32;87.88
75170;SHT31;63749;49.186;9.222;2023-07-16T03:50:43;18.23;87.73
75170;SHT31;63749;49.186;9.222;2023-07-16T03:53:08;18.32;87.84
75170;SHT31;63749;49.186;9.222;2023-07-16T03:55:34;18.32;87.37
75170;SHT31;63749;49.186;9.222;2023-07-16T03:57:59;18.29;87.88
75170;SHT31;63749;49.186;9.222;2023-07-16T04:00:25;18.25;87.39
75170;SHT31;63749;49.186;9.222;2023-07-16T04:02:50;18.20;87.71
75170;SHT31;63749;49.186;9.222;2023-07-16T04:05:16;18.23;87.62
75170;SHT31;63749;49.186;9.222;2023-07-16T04:07:41;18.29;87.29
75170;SHT31;63749;49.186;9.222;2023-07-16T04:10:07;18.30;87.49
75170;SHT31;63749;49.186;9.222;2023-07-16T04:12:32;18.25;87.98
75170;SHT31;63749;49.186;9.222;2023-07-16T04:14:58;18.34;87.76
75170;SHT31;63749;49.186;9.222;2023-07-16T04:17:24;18.43;87.48
75170;SHT31;63749;49.186;9.222;2023-07-16T04:19:50;18.49;85.48
75170;SHT31;63749;49.186;9.222;2023-07-16T04:22:16;18.51;86.11
75170;SHT31;63749;49.186;9.222;2023-07-16T04:24:41;18.57;85.61
75170;SHT31;63749;49.186;9.222;2023-07-16T04:27:06;18.51;85.53
75170;SHT31;63749;49.186;9.222;2023-07-16T04:29:32;18.53;85.15
75170;SHT31;63749;49.186;9.222;2023-07-16T04:31:57;18.53;85.52
75170;SHT31;63749;49.186;9.222;2023-07-16T04:34:22;18.50;85.44
75170;SHT31;63749;49.186;9.222;2023-07-16T04:36:48;18.53;84.85
75170;SHT31;63749;49.186;9.222;2023-07-16T04:39:14;18.54;85.26
75170;SHT31;63749;49.186;9.222;2023-07-16T04:41:40;18.58;84.65
75170;SHT31;63749;49.186;9.222;2023-07-16T04:44:05;18.64;84.08
75170;SHT31;63749;49.186;9.222;2023-07-16T04:46:31;18.67;84.18
75170;SHT31;63749;49.186;9.222;2023-07-16T04:48:56;18.68;83.66
75170;SHT31;63749;49.186;9.222;2023-07-16T04:51:22;18.72;83.65
75170;SHT31;63749;49.186;9.222;2023-07-16T04:53:48;18.65;83.93
75170;SHT31;63749;49.186;9.222;2023-07-16T04:56:14;18.67;84.01
75170;SHT31;63749;49.186;9.222;2023-07-16T04:58:39;18.67;83.65
75170;SHT31;63749;49.186;9.222;2023-07-16T05:01:05;18.68;83.72
75170;SHT31;63749;49.186;9.222;2023-07-16T05:03:30;18.65;83.97
75170;SHT31;63749;49.186;9.222;2023-07-16T05:05:55;18.64;83.84
75170;SHT31;63749;49.186;9.222;2023-07-16T05:08:21;18.72;83.73
75170;SHT31;63749;49.186;9.222;2023-07-16T05:10:46;18.71;84.03
75170;SHT31;63749;49.186;9.222;2023-07-16T05:13:11;18.72;84.10
75170;SHT31;63749;49.186;9.222;2023-07-16T05:15:37;18.71;84.41
75170;SHT31;63749;49.186;9.222;2023-07-16T05:18:03;18.75;84.06
75170;SHT31;63749;49.186;9.222;2023-07-16T05:20:28;18.83;83.71
75170;SHT31;63749;49.186;9.222;2023-07-16T05:22:54;18.91;83.19
75170;SHT31;63749;49.186;9.222;2023-07-16T05:25:19;18.89;82.89
75170;SHT31;63749;49.186;9.222;2023-07-16T05:27:44;19.04;83.15
75170;SHT31;63749;49.186;9.222;2023-07-16T05:30:10;19.02;83.16
75170;SHT31;63749;49.186;9.222;2023-07-16T05:32:36;19.07;82.64
75170;SHT31;63749;49.186;9.222;2023-07-16T05:35:01;19.08;82.50
75170;SHT31;63749;49.186;9.222;2023-07-16T05:37:26;19.20;82.51
75170;SHT31;63749;49.186;9.222;2023-07-16T05:39:52;19.30;81.44
75170;SHT31;63749;49.186;9.222;2023-07-16T05:42:17;19.36;80.94
75170;SHT31;63749;49.186;9.222;2023-07-16T05:44:42;19.39;79.99
75170;SHT31;63749;49.186;9.222;2023-07-16T05:47:09;19.35;80.65
75170;SHT31;63749;49.186;9.222;2023-07-16T05:49:35;19.35;79.79
75170;SHT31;63749;49.186;9.222;2023-07-16T05:52:00;19.29;80.88
75170;SHT31;63749;49.186;9.222;2023-07-16T05:54:26;19.23;80.40
75170;SHT31;63749;49.186;9.222;2023-07-16T05:56:51;19.20;81.22
75170;SHT31;63749;49.186;9.222;2023-07-16T05:59:16;19.32;81.60
75170;SHT31;63749;49.186;9.222;2023-07-16T06:01:42;19.46;81.16
75170;SHT31;63749;49.186;9.222;2023-07-16T06:04:07;19.70;79.60
75170;SHT31;63749;49.186;9.222;2023-07-16T06:06:33;19.71;79.01
75170;SHT31;63749;49.186;9.222;2023-07-16T06:08:58;19.83;79.21
75170;SHT31;63749;49.186;9.222;2023-07-16T06:11:23;19.88;79.46
75170;SHT31;63749;49.186;9.222;2023-07-16T06:13:49;20.01;78.74
75170;SHT31;63749;49.186;9.222;2023-07-16T06:16:14;20.11;78.50
75170;SHT31;63749;49.186;9.222;2023-07-16T06:18:40;20.24;78.64
75170;SHT31;63749;49.186;9.222;2023-07-16T06:21:05;20.24;77.39
75170;SHT31;63749;49.186;9.222;2023-07-16T06:23:30;20.21;77.02
75170;SHT31;63749;49.186;9.222;2023-07-16T06:25:56;20.27;75.39
75170;SHT31;63749;49.186;9.222;2023-07-16T06:28:22;20.17;75.23
75170;SHT31;63749;49.186;9.222;2023-07-16T06:30:47;20.22;75.64
75170;SHT31;63749;49.186;9.222;2023-07-16T06:33:13;20.18;75.31
75170;SHT31;63749;49.186;9.222;2023-07-16T06:35:38;20.08;75.26
75170;SHT31;63749;49.186;9.222;2023-07-16T06:38:03;20.10;75.59
75170;SHT31;63749;49.186;9.222;2023-07-16T06:40:29;20.22;75.69
75170;SHT31;63749;49.186;9.222;2023-07-16T06:42:55;20.22;74.33
75170;SHT31;63749;49.186;9.222;2023-07-16T06:45:21;20.32;75.42
75170;SHT31;63749;49.186;9.222;2023-07-16T06:47:48;20.35;74.38
75170;SHT31;63749;49.186;9.222;2023-07-16T06:50:13;20.27;74.89
75170;SHT31;63749;49.186;9.222;2023-07-16T06:52:39;20.20;76.43
75170;SHT31;63749;49.186;9.222;2023-07-16T06:55:04;20.20;75.30
75170;SHT31;63749;49.186;9.222;2023-07-16T06:57:30;20.08;74.50
75170;SHT31;63749;49.186;9.222;2023-07-16T06:59:55;19.93;75.31
75170;SHT31;63749;49.186;9.222;2023-07-16T07:02:20;19.77;74.36
75170;SHT31;63749;49.186;9.222;2023-07-16T07:04:46;19.66;74.92
75170;SHT31;63749;49.186;9.222;2023-07-16T07:07:11;19.91;74.29
75170;SHT31;63749;49.186;9.222;2023-07-16T07:09:37;20.04;74.45
75170;SHT31;63749;49.186;9.222;2023-07-16T07:12:02;20.04;74.27
75170;SHT31;63749;49.186;9.222;2023-07-16T07:14:28;20.00;75.18
75170;SHT31;63749;49.186;9.222;2023-07-16T07:16:53;19.81;73.73
75170;SHT31;63749;49.186;9.222;2023-07-16T07:19:19;19.77;74.35
75170;SHT31;63749;49.186;9.222;2023-07-16T07:21:44;19.74;74.75
75170;SHT31;63749;49.186;9.222;2023-07-16T07:24:10;19.90;73.48
75170;SHT31;63749;49.186;9.222;2023-07-16T07:26:35;19.98;73.45
75170;SHT31;63749;49.186;9.222;2023-07-16T07:29:01;20.32;71.84
75170;SHT31;63749;49.186;9.222;2023-07-16T07:31:26;20.71;71.78
75170;SHT31;63749;49.186;9.222;2023-07-16T07:33:52;21.08;70.51
75170;SHT31;63749;49.186;9.222;2023-07-16T07:36:19;21.20;68.12
75170;SHT31;63749;49.186;9.222;2023-07-16T07:38:44;21.20;67.66
75170;SHT31;63749;49.186;9.222;2023-07-16T07:41:10;21.30;68.28
75170;SHT31;63749;49.186;9.222;2023-07-16T07:43:35;21.34;68.91
75170;SHT31;63749;49.186;9.222;2023-07-16T07:46:00;21.16;66.06
75170;SHT31;63749;49.186;9.222;2023-07-16T07:48:26;21.24;65.24
75170;SHT31;63749;49.186;9.222;2023-07-16T07:50:51;21.55;63.75
75170;SHT31;63749;49.186;9.222;2023-07-16T07:53:16;21.17;65.44
75170;SHT31;63749;49.186;9.222;2023-07-16T07:55:43;21.31;65.68
75170;SHT31;63749;49.186;9.222;2023-07-16T07:58:09;21.55;65.87
75170;SHT31;63749;49.186;9.222;2023-07-16T08:00:34;21.72;65.20
75170;SHT31;63749;49.186;9.222;2023-07-16T08:02:59;21.88;64.64
75170;SHT31;63749;49.186;9.222;2023-07-16T08:05:24;21.95;64.14
75170;SHT31;63749;49.186;9.222;2023-07-16T08:07:50;21.89;64.01
75170;SHT31;63749;49.186;9.222;2023-07-16T08:10:16;21.89;62.90
75170;SHT31;63749;49.186;9.222;2023-07-16T08:12:42;21.81;63.59
75170;SHT31;63749;49.186;9.222;2023-07-16T08:15:07;21.88;63.57
75170;SHT31;63749;49.186;9.222;2023-07-16T08:17:34;21.77;61.51
75170;SHT31;63749;49.186;9.222;2023-07-16T08:20:00;22.13;61.25
75170;SHT31;63749;49.186;9.222;2023-07-16T08:22:25;22.06;62.16
75170;SHT31;63749;49.186;9.222;2023-07-16T08:24:51;21.81;63.03
75170;SHT31;63749;49.186;9.222;2023-07-16T08:27:16;21.54;64.57
75170;SHT31;63749;49.186;9.222;2023-07-16T08:29:42;21.79;64.44
75170;SHT31;63749;49.186;9.222;2023-07-16T08:32:07;22.01;61.69
75170;SHT31;63749;49.186;9.222;2023-07-16T08:34:33;22.06;61.53
75170;SHT31;63749;49.186;9.222;2023-07-16T08:36:58;22.29;61.78
75170;SHT31;63749;49.186;9.222;2023-07-16T08:39:23;22.60;60.11
75170;SHT31;63749;49.186;9.222;2023-07-16T08:41:49;22.75;58.86
75170;SHT31;63749;49.186;9.222;2023-07-16T08:44:14;22.59;57.19
75170;SHT31;63749;49.186;9.222;2023-07-16T08:46:40;22.33;58.40
75170;SHT31;63749;49.186;9.222;2023-07-16T08:49:07;22.81;58.18
75170;SHT31;63749;49.186;9.222;2023-07-16T08:51:34;22.91;58.69
75170;SHT31;63749;49.186;9.222;2023-07-16T08:53:59;22.70;58.25
75170;SHT31;63749;49.186;9.222;2023-07-16T08:56:25;22.83;57.24
75170;SHT31;63749;49.186;9.222;2023-07-16T08:58:55;22.59;59.07
75170;SHT31;63749;49.186;9.222;2023-07-16T09:01:23;22.60;59.87
75170;SHT31;63749;49.186;9.222;2023-07-16T09:03:48;22.67;59.19
75170;SHT31;63749;49.186;9.222;2023-07-16T09:06:14;22.86;57.24
75170;SHT31;63749;49.186;9.222;2023-07-16T09:08:39;22.98;56.66
75170;SHT31;63749;49.186;9.222;2023-07-16T09:11:04;22.83;56.81
75170;SHT31;63749;49.186;9.222;2023-07-16T09:13:30;22.91;57.43
75170;SHT31;63749;49.186;9.222;2023-07-16T09:15:57;22.94;57.79
75170;SHT31;63749;49.186;9.222;2023-07-16T09:18:25;23.00;56.74
75170;SHT31;63749;49.186;9.222;2023-07-16T09:20:54;23.21;55.98
75170;SHT31;63749;49.186;9.222;2023-07-16T09:23:20;23.14;56.00
75170;SHT31;63749;49.186;9.222;2023-07-16T09:25:45;23.35;55.48
75170;SHT31;63749;49.186;9.222;2023-07-16T09:28:11;23.67;56.24
75170;SHT31;63749;49.186;9.222;2023-07-16T09:30:37;23.90;55.68
75170;SHT31;63749;49.186;9.222;2023-07-16T09:33:14;23.79;54.37
75170;SHT31;63749;49.186;9.222;2023-07-16T09:35:40;23.81;54.22
75170;SHT31;63749;49.186;9.222;2023-07-16T09:38:07;23.83;53.93
75170;SHT31;63749;49.186;9.222;2023-07-16T09:40:33;23.79;54.78
75170;SHT31;63749;49.186;9.222;2023-07-16T09:42:59;23.89;54.49
75170;SHT31;63749;49.186;9.222;2023-07-16T09:45:27;23.67;54.84
75170;SHT31;63749;49.186;9.222;2023-07-16T09:47:52;23.67;54.27
75170;SHT31;63749;49.186;9.222;2023-07-16T09:50:18;23.29;54.99
75170;SHT31;63749;49.186;9.222;2023-07-16T09:52:43;23.50;53.74
75170;SHT31;63749;49.186;9.222;2023-07-16T09:55:10;23.46;54.07
75170;SHT31;63749;49.186;9.222;2023-07-16T09:57:38;23.39;55.09
75170;SHT31;63749;49.186;9.222;2023-07-16T10:00:07;23.31;55.31
75170;SHT31;63749;49.186;9.222;2023-07-16T10:02:37;23.42;54.40
75170;SHT31;63749;49.186;9.222;2023-07-16T10:05:19;23.23;53.73
75170;SHT31;63749;49.186;9.222;2023-07-16T10:07:52;23.16;53.36
75170;SHT31;63749;49.186;9.222;2023-07-16T10:10:18;23.25;52.49
75170;SHT31;63749;49.186;9.222;2023-07-16T10:12:55;23.29;53.86
75170;SHT31;63749;49.186;9.222;2023-07-16T10:15:25;23.76;52.65
75170;SHT31;63749;49.186;9.222;2023-07-16T10:17:52;24.14;51.73
75170;SHT31;63749;49.186;9.222;2023-07-16T10:20:31;24.11;51.66
75170;SHT31;63749;49.186;9.222;2023-07-16T10:22:56;23.92;51.17
75170;SHT31;63749;49.186;9.222;2023-07-16T10:25:24;23.92;51.40
75170;SHT31;63749;49.186;9.222;2023-07-16T10:27:51;23.96;51.71
75170;SHT31;63749;49.186;9.222;2023-07-16T10:30:17;24.13;50.54
75170;SHT31;63749;49.186;9.222;2023-07-16T10:32:43;24.58;48.81
75170;SHT31;63749;49.186;9.222;2023-07-16T10:35:09;24.31;50.33
75170;SHT31;63749;49.186;9.222;2023-07-16T10:37:34;24.41;50.21
75170;SHT31;63749;49.186;9.222;2023-07-16T10:40:02;24.39;51.11
75170;SHT31;63749;49.186;9.222;2023-07-16T10:42:32;24.48;51.60
75170;SHT31;63749;49.186;9.222;2023-07-16T10:45:03;24.68;52.09
75170;SHT31;63749;49.186;9.222;2023-07-16T10:47:35;24.52;51.87
75170;SHT31;63749;49.186;9.222;2023-07-16T10:50:04;24.20;52.64
75170;SHT31;63749;49.186;9.222;2023-07-16T10:52:29;24.30;53.07
75170;SHT31;63749;49.186;9.222;2023-07-16T10:54:54;24.47;51.51
75170;SHT31;63749;49.186;9.222;2023-07-16T10:57:27;24.95;50.18
75170;SHT31;63749;49.186;9.222;2023-07-16T10:59:55;24.89;50.28
75170;SHT31;63749;49.186;9.222;2023-07-16T11:02:22;25.16;49.66
75170;SHT31;63749;49.186;9.222;2023-07-16T11:04:48;25.10;49.01
75170;SHT31;63749;49.186;9.222;2023-07-16T11:07:14;25.12;48.90
75170;SHT31;63749;49.186;9.222;2023-07-16T11:09:44;25.24;50.01
75170;SHT31;63749;49.186;9.222;2023-07-16T11:12:15;25.07;50.79
75170;SHT31;63749;49.186;9.222;2023-07-16T11:14:47;24.83;49.16
75170;SHT31;63749;49.186;9.222;2023-07-16T11:17:13;25.44;48.67
75170;SHT31;63749;49.186;9.222;2023-07-16T11:19:39;25.78;49.34
75170;SHT31;63749;49.186;9.222;2023-07-16T11:22:06;25.48;49.01
75170;SHT31;63749;49.186;9.222;2023-07-16T11:24:42;25.13;49.73
75170;SHT31;63749;49.186;9.222;2023-07-16T11:29:44;25.56;50.12
75170;SHT31;63749;49.186;9.222;2023-07-16T11:32:10;25.56;49.26
75170;SHT31;63749;49.186;9.222;2023-07-16T11:34:35;25.77;49.76
75170;SHT31;63749;49.186;9.222;2023-07-16T11:37:08;25.84;49.26
75170;SHT31;63749;49.186;9.222;2023-07-16T11:39:34;25.95;49.05
75170;SHT31;63749;49.186;9.222;2023-07-16T11:42:02;26.05;49.12
75170;SHT31;63749;49.186;9.222;2023-07-16T11:44:32;26.09;48.30
75170;SHT31;63749;49.186;9.222;2023-07-16T11:46:58;26.26;49.55
75170;SHT31;63749;49.186;9.222;2023-07-16T11:49:24;26.49;47.28
75170;SHT31;63749;49.186;9.222;2023-07-16T11:51:49;26.18;46.85
75170;SHT31;63749;49.186;9.222;2023-07-16T11:54:14;26.29;47.34
75170;SHT31;63749;49.186;9.222;2023-07-16T11:56:40;26.31;46.76
75170;SHT31;63749;49.186;9.222;2023-07-16T11:59:05;26.21;46.71
75170;SHT31;63749;49.186;9.222;2023-07-16T12:01:30;26.37;47.38
75170;SHT31;63749;49.186;9.222;2023-07-16T12:03:55;26.50;45.73
75170;SHT31;63749;49.186;9.222;2023-07-16T12:06:21;26.52;46.82
75170;SHT31;63749;49.186;9.222;2023-07-16T12:08:46;26.49;46.34
75170;SHT31;63749;49.186;9.222;2023-07-16T12:11:11;26.50;46.25
75170;SHT31;63749;49.186;9.222;2023-07-16T12:13:37;26.37;46.86
75170;SHT31;63749;49.186;9.222;2023-07-16T12:16:02;26.21;46.68
75170;SHT31;63749;49.186;9.222;2023-07-16T12:18:27;26.42;47.12
75170;SHT31;63749;49.186;9.222;2023-07-16T12:20:55;26.73;45.94
75170;SHT31;63749;49.186;9.222;2023-07-16T12:23:20;26.80;44.89
75170;SHT31;63749;49.186;9.222;2023-07-16T12:25:45;26.88;43.78
75170;SHT31;63749;49.186;9.222;2023-07-16T12:28:11;26.49;45.95
75170;SHT31;63749;49.186;9.222;2023-07-16T12:30:37;26.66;46.17
75170;SHT31;63749;49.186;9.222;2023-07-16T12:33:02;26.61;45.74
75170;SHT31;63749;49.186;9.222;2023-07-16T12:35:29;27.07;45.50
75170;SHT31;63749;49.186;9.222;2023-07-16T12:37:54;27.39;44.98
75170;SHT31;63749;49.186;9.222;2023-07-16T12:40:19;27.82;43.81
75170;SHT31;63749;49.186;9.222;2023-07-16T12:42:45;28.67;42.72
75170;SHT31;63749;49.186;9.222;2023-07-16T12:45:10;29.08;40.58
75170;SHT31;63749;49.186;9.222;2023-07-16T12:47:36;29.61;39.86
75170;SHT31;63749;49.186;9.222;2023-07-16T12:50:03;30.49;38.41
75170;SHT31;63749;49.186;9.222;2023-07-16T12:52:29;30.98;37.94
75170;SHT31;63749;49.186;9.222;2023-07-16T12:54:54;31.46;37.07
75170;SHT31;63749;49.186;9.222;2023-07-16T12:57:19;32.01;35.90
75170;SHT31;63749;49.186;9.222;2023-07-16T12:59:45;31.82;35.50
75170;SHT31;63749;49.186;9.222;2023-07-16T13:02:10;30.76;37.35
75170;SHT31;63749;49.186;9.222;2023-07-16T13:04:35;31.58;35.59
75170;SHT31;63749;49.186;9.222;2023-07-16T13:07:01;31.54;35.72
75170;SHT31;63749;49.186;9.222;2023-07-16T13:09:26;31.83;35.35
75170;SHT31;63749;49.186;9.222;2023-07-16T13:11:52;32.27;34.22
75170;SHT31;63749;49.186;9.222;2023-07-16T13:14:17;32.57;34.63
75170;SHT31;63749;49.186;9.222;2023-07-16T13:16:43;33.01;34.58
75170;SHT31;63749;49.186;9.222;2023-07-16T13:19:08;33.30;33.70
75170;SHT31;63749;49.186;9.222;2023-07-16T13:21:33;33.53;32.88
75170;SHT31;63749;49.186;9.222;2023-07-16T13:23:59;32.68;33.24
75170;SHT31;63749;49.186;9.222;2023-07-16T13:26:24;33.43;32.93
75170;SHT31;63749;49.186;9.222;2023-07-16T13:28:49;31.33;36.15
75170;SHT31;63749;49.186;9.222;2023-07-16T13:31:15;31.41;36.06
75170;SHT31;63749;49.186;9.222;2023-07-16T13:33:40;33.18;33.63
75170;SHT31;63749;49.186;9.222;2023-07-16T13:36:06;33.41;32.65
75170;SHT31;63749;49.186;9.222;2023-07-16T13:38:31;33.66;31.77
75170;SHT31;63749;49.186;9.222;2023-07-16T13:40:57;34.01;32.41
75170;SHT31;63749;49.186;9.222;2023-07-16T13:43:22;33.98;32.01
75170;SHT31;63749;49.186;9.222;2023-07-16T13:45:47;34.37;30.95
75170;SHT31;63749;49.186;9.222;2023-07-16T13:48:13;34.24;30.76
75170;SHT31;63749;49.186;9.222;2023-07-16T13:50:38;34.75;30.96
75170;SHT31;63749;49.186;9.222;2023-07-16T13:53:03;34.82;30.07
75170;SHT31;63749;49.186;9.222;2023-07-16T13:55:29;34.49;30.56
75170;SHT31;63749;49.186;9.222;2023-07-16T13:57:54;34.81;30.96
75170;SHT31;63749;49.186;9.222;2023-07-16T14:00:21;34.62;30.89
75170;SHT31;63749;49.186;9.222;2023-07-16T14:02:46;35.27;29.97
75170;SHT31;63749;49.186;9.222;2023-07-16T14:05:11;34.99;30.48
75170;SHT31;63749;49.186;9.222;2023-07-16T14:07:37;34.66;30.75
75170;SHT31;63749;49.186;9.222;2023-07-16T14:10:02;34.79;30.42
75170;SHT31;63749;49.186;9.222;2023-07-16T14:12:28;34.79;30.45
75170;SHT31;63749;49.186;9.222;2023-07-16T14:14:53;34.95;29.52
75170;SHT31;63749;49.186;9.222;2023-07-16T14:17:20;34.78;29.76
75170;SHT31;63749;49.186;9.222;2023-07-16T14:19:45;35.16;29.07
75170;SHT31;63749;49.186;9.222;2023-07-16T14:22:10;35.90;28.37
75170;SHT31;63749;49.186;9.222;2023-07-16T14:24:41;35.97;28.50
75170;SHT31;63749;49.186;9.222;2023-07-16T14:27:07;35.36;29.53
75170;SHT31;63749;49.186;9.222;2023-07-16T14:29:33;35.06;29.02
75170;SHT31;63749;49.186;9.222;2023-07-16T14:31:59;35.09;29.12
75170;SHT31;63749;49.186;9.222;2023-07-16T14:34:25;35.17;28.91
75170;SHT31;63749;49.186;9.222;2023-07-16T14:36:51;34.95;28.80
75170;SHT31;63749;49.186;9.222;2023-07-16T14:39:16;35.22;28.85
75170;SHT31;63749;49.186;9.222;2023-07-16T14:41:42;35.46;28.86
75170;SHT31;63749;49.186;9.222;2023-07-16T14:44:07;35.53;28.17
75170;SHT31;63749;49.186;9.222;2023-07-16T14:46:32;35.65;27.90
75170;SHT31;63749;49.186;9.222;2023-07-16T14:48:58;36.25;27.47
75170;SHT31;63749;49.186;9.222;2023-07-16T14:51:23;36.38;27.11
75170;SHT31;63749;49.186;9.222;2023-07-16T14:53:50;35.55;27.72
75170;SHT31;63749;49.186;9.222;2023-07-16T14:56:15;35.49;27.78
75170;SHT31;63749;49.186;9.222;2023-07-16T14:58:40;35.03;28.30
75170;SHT31;63749;49.186;9.222;2023-07-16T15:01:06;35.22;28.66
75170;SHT31;63749;49.186;9.222;2023-07-16T15:03:34;35.44;27.90
75170;SHT31;63749;49.186;9.222;2023-07-16T15:06:00;35.49;27.62
75170;SHT31;63749;49.186;9.222;2023-07-16T15:08:26;35.07;28.36
75170;SHT31;63749;49.186;9.222;2023-07-16T15:10:52;36.14;27.09
75170;SHT31;63749;49.186;9.222;2023-07-16T15:13:17;36.59;26.73
75170;SHT31;63749;49.186;9.222;2023-07-16T15:15:49;34.01;29.89
75170;SHT31;63749;49.186;9.222;2023-07-16T15:18:15;32.60;31.26
75170;SHT31;63749;49.186;9.222;2023-07-16T15:20:40;31.65;32.37
75170;SHT31;63749;49.186;9.222;2023-07-16T15:23:06;30.96;33.55
75170;SHT31;63749;49.186;9.222;2023-07-16T15:25:31;30.88;33.55
75170;SHT31;63749;49.186;9.222;2023-07-16T15:27:56;31.46;32.78
75170;SHT31;63749;49.186;9.222;2023-07-16T15:30:22;32.40;31.18